Aeroporto :
LOGIN :

Iscrizione | Disclaimer

   EN    FR    IT 

 










Sommario :    VFR   VFR Marginale   IFR   IFR Intensivo   IFR Molto Intensivo
Visibilità : 
Base nubi : 
>= 8 km
>= 3000ft
5 / 8 km
1000 / 3000 ft
1500m / 5 km
500 / 1000 ft
800 / 1500m
200 / 500 ft
< 800m
< 200 ft
Simboli :   Temporali  Nebbia  Neve Forte  Precipitazioni Forti  Vento > 20 kt
SIGMETs :   Varie  Temporali  Ghiacco  Turbolenza  Onda orograficha  Ceneri Vulcaniche






- Altitudine del aeroporto : 393 ft
- Codice IATA : TYF


ESST - Torsby

ULTIMO METAR :
  • 050350Z AUTO 07006KT 040V110 9999 OVC047/// 13/09 Q0997

METARs OBSOLETI :
  • 050320Z AUTO 09006KT 040V120 9999 OVC053/// 14/09 Q0997
  • 050250Z AUTO 08006KT 020V120 9999 SCT043/// OVC061/// 14/10 Q0997
  • 050220Z AUTO 09006KT 060V120 9999 BKN047/// OVC061/// 14/10 Q0998
  • 050150Z AUTO 10004KT 060V130 9999 OVC062/// 14/10 Q0998
  • 050120Z AUTO 09005KT 060V140 9999 OVC068/// 14/10 Q0998

TAF N/A



MetMap, La meteo Aeronautica in un colpo d'occhio ! - Copyright ORBIFLY Dicembre 2007 - Disclaimer

ORBIFLY MET'MAP TEAM :

Programmazione e sviluppo : Alexandra Zaïnal
Concezione : Baudouin d'Aumeries
Aiuto per la programmazione : Marc-Olivier Méhu
Supporto tecnico e logistico : Manuel Goepfert
Aiuto per la traduzione : Arnaldo La Scala

Contatto : metmap@orbifly.com




FONTI E CREDITI :

   NOAA